sensor_id;sensor_type;location;lat;lon;timestamp;temperature;humidity
25877;DHT22;13692;47.480;19.216;2022-12-22T00:01:35;2.70;99.90
25877;DHT22;13692;47.480;19.216;2022-12-22T00:04:22;2.70;99.90
25877;DHT22;13692;47.480;19.216;2022-12-22T00:07:07;2.70;99.90
25877;DHT22;13692;47.480;19.216;2022-12-22T00:09:53;2.60;99.90
25877;DHT22;13692;47.480;19.216;2022-12-22T00:12:39;2.60;99.90
25877;DHT22;13692;47.480;19.216;2022-12-22T00:15:25;2.60;99.90
25877;DHT22;13692;47.480;19.216;2022-12-22T00:18:15;2.70;99.90
25877;DHT22;13692;47.480;19.216;2022-12-22T00:21:00;2.70;99.90
25877;DHT22;13692;47.480;19.216;2022-12-22T00:23:46;2.80;99.90
25877;DHT22;13692;47.480;19.216;2022-12-22T00:26:33;2.80;99.90
25877;DHT22;13692;47.480;19.216;2022-12-22T00:29:20;2.90;99.90
25877;DHT22;13692;47.480;19.216;2022-12-22T00:32:11;2.90;99.90
25877;DHT22;13692;47.480;19.216;2022-12-22T00:34:57;2.90;99.90
25877;DHT22;13692;47.480;19.216;2022-12-22T00:37:43;2.90;99.90
25877;DHT22;13692;47.480;19.216;2022-12-22T00:40:28;2.90;99.90
25877;DHT22;13692;47.480;19.216;2022-12-22T00:43:14;2.90;99.90
25877;DHT22;13692;47.480;19.216;2022-12-22T00:46:01;2.90;99.90
25877;DHT22;13692;47.480;19.216;2022-12-22T00:48:48;2.90;99.90
25877;DHT22;13692;47.480;19.216;2022-12-22T00:51:34;2.90;99.90
25877;DHT22;13692;47.480;19.216;2022-12-22T00:54:21;3.00;99.90
25877;DHT22;13692;47.480;19.216;2022-12-22T00:57:17;3.00;99.90
25877;DHT22;13692;47.480;19.216;2022-12-22T01:00:05;3.00;99.90
25877;DHT22;13692;47.480;19.216;2022-12-22T01:02:50;3.00;99.90
25877;DHT22;13692;47.480;19.216;2022-12-22T01:05:36;3.00;99.90
25877;DHT22;13692;47.480;19.216;2022-12-22T01:08:22;3.10;99.90
25877;DHT22;13692;47.480;19.216;2022-12-22T01:11:07;3.00;99.90
25877;DHT22;13692;47.480;19.216;2022-12-22T01:13:53;3.00;99.90
25877;DHT22;13692;47.480;19.216;2022-12-22T01:16:39;2.90;99.90
25877;DHT22;13692;47.480;19.216;2022-12-22T01:19:24;2.90;99.90
25877;DHT22;13692;47.480;19.216;2022-12-22T01:22:11;2.90;99.90
25877;DHT22;13692;47.480;19.216;2022-12-22T01:24:56;3.00;99.90
25877;DHT22;13692;47.480;19.216;2022-12-22T01:27:42;3.00;99.90
25877;DHT22;13692;47.480;19.216;2022-12-22T01:30:27;3.00;99.90
25877;DHT22;13692;47.480;19.216;2022-12-22T01:33:13;3.00;99.90
25877;DHT22;13692;47.480;19.216;2022-12-22T01:35:59;3.00;99.90
25877;DHT22;13692;47.480;19.216;2022-12-22T01:38:44;3.00;99.90
25877;DHT22;13692;47.480;19.216;2022-12-22T01:41:30;3.00;99.90
25877;DHT22;13692;47.480;19.216;2022-12-22T01:44:16;3.00;99.90
25877;DHT22;13692;47.480;19.216;2022-12-22T01:50:22;3.00;99.90
25877;DHT22;13692;47.480;19.216;2022-12-22T01:53:15;3.10;99.90
25877;DHT22;13692;47.480;19.216;2022-12-22T01:56:02;2.90;99.90
25877;DHT22;13692;47.480;19.216;2022-12-22T01:58:53;2.90;99.90
25877;DHT22;13692;47.480;19.216;2022-12-22T02:01:40;2.90;99.90
25877;DHT22;13692;47.480;19.216;2022-12-22T02:04:34;2.90;99.90
25877;DHT22;13692;47.480;19.216;2022-12-22T02:24:15;3.00;99.90
25877;DHT22;13692;47.480;19.216;2022-12-22T02:26:28;3.10;99.90
25877;DHT22;13692;47.480;19.216;2022-12-22T02:29:19;3.10;99.90
25877;DHT22;13692;47.480;19.216;2022-12-22T02:32:06;3.00;99.90
25877;DHT22;13692;47.480;19.216;2022-12-22T02:34:52;3.10;99.90
25877;DHT22;13692;47.480;19.216;2022-12-22T02:47:10;3.10;99.90
25877;DHT22;13692;47.480;19.216;2022-12-22T02:50:03;3.10;99.90
25877;DHT22;13692;47.480;19.216;2022-12-22T02:52:53;3.10;99.90
25877;DHT22;13692;47.480;19.216;2022-12-22T02:55:39;3.00;99.90
25877;DHT22;13692;47.480;19.216;2022-12-22T02:58:24;3.00;99.90
25877;DHT22;13692;47.480;19.216;2022-12-22T03:01:10;3.00;99.90
25877;DHT22;13692;47.480;19.216;2022-12-22T03:03:55;3.00;99.90
25877;DHT22;13692;47.480;19.216;2022-12-22T03:06:41;3.10;99.90
25877;DHT22;13692;47.480;19.216;2022-12-22T03:09:26;3.20;99.90
25877;DHT22;13692;47.480;19.216;2022-12-22T03:12:12;3.20;99.90
25877;DHT22;13692;47.480;19.216;2022-12-22T03:14:58;3.20;99.90
25877;DHT22;13692;47.480;19.216;2022-12-22T03:17:43;3.20;99.90
25877;DHT22;13692;47.480;19.216;2022-12-22T03:20:29;3.20;99.90
25877;DHT22;13692;47.480;19.216;2022-12-22T03:23:14;3.20;99.90
25877;DHT22;13692;47.480;19.216;2022-12-22T03:26:00;3.30;99.90
25877;DHT22;13692;47.480;19.216;2022-12-22T03:28:28;3.30;99.90
25877;DHT22;13692;47.480;19.216;2022-12-22T03:31:00;3.40;99.90
25877;DHT22;13692;47.480;19.216;2022-12-22T03:33:28;3.50;99.90
25877;DHT22;13692;47.480;19.216;2022-12-22T03:35:55;3.40;99.90
25877;DHT22;13692;47.480;19.216;2022-12-22T03:38:23;3.40;99.90
25877;DHT22;13692;47.480;19.216;2022-12-22T03:40:50;3.40;99.90
25877;DHT22;13692;47.480;19.216;2022-12-22T03:43:17;3.40;99.90
25877;DHT22;13692;47.480;19.216;2022-12-22T03:46:03;3.40;99.90
25877;DHT22;13692;47.480;19.216;2022-12-22T03:48:49;3.40;99.90
25877;DHT22;13692;47.480;19.216;2022-12-22T03:51:36;3.40;99.90
25877;DHT22;13692;47.480;19.216;2022-12-22T03:54:04;3.40;99.90
25877;DHT22;13692;47.480;19.216;2022-12-22T03:56:31;3.40;99.90
25877;DHT22;13692;47.480;19.216;2022-12-22T03:58:58;3.40;99.90
25877;DHT22;13692;47.480;19.216;2022-12-22T04:01:25;3.50;99.90
25877;DHT22;13692;47.480;19.216;2022-12-22T04:03:52;3.50;99.90
25877;DHT22;13692;47.480;19.216;2022-12-22T04:06:20;3.50;99.90
25877;DHT22;13692;47.480;19.216;2022-12-22T04:08:47;3.50;99.90
25877;DHT22;13692;47.480;19.216;2022-12-22T04:11:15;3.50;99.90
25877;DHT22;13692;47.480;19.216;2022-12-22T04:14:01;3.60;99.90
25877;DHT22;13692;47.480;19.216;2022-12-22T04:16:29;3.40;99.90
25877;DHT22;13692;47.480;19.216;2022-12-22T04:18:56;3.40;99.90
25877;DHT22;13692;47.480;19.216;2022-12-22T04:21:23;3.40;99.90
25877;DHT22;13692;47.480;19.216;2022-12-22T04:23:50;3.40;99.90
25877;DHT22;13692;47.480;19.216;2022-12-22T04:26:23;3.40;99.90
25877;DHT22;13692;47.480;19.216;2022-12-22T04:28:51;3.40;99.90
25877;DHT22;13692;47.480;19.216;2022-12-22T04:31:19;3.40;99.90
25877;DHT22;13692;47.480;19.216;2022-12-22T04:33:46;3.40;99.90
25877;DHT22;13692;47.480;19.216;2022-12-22T04:36:13;3.40;99.90
25877;DHT22;13692;47.480;19.216;2022-12-22T04:38:41;3.40;99.90
25877;DHT22;13692;47.480;19.216;2022-12-22T04:41:08;3.30;99.90
25877;DHT22;13692;47.480;19.216;2022-12-22T04:43:35;3.40;99.90
25877;DHT22;13692;47.480;19.216;2022-12-22T04:46:03;3.40;99.90
25877;DHT22;13692;47.480;19.216;2022-12-22T04:48:31;3.40;99.90
25877;DHT22;13692;47.480;19.216;2022-12-22T04:50:59;3.40;99.90
25877;DHT22;13692;47.480;19.216;2022-12-22T04:53:27;3.40;99.90
25877;DHT22;13692;47.480;19.216;2022-12-22T04:55:58;3.30;99.90
25877;DHT22;13692;47.480;19.216;2022-12-22T04:58:26;3.30;99.90
25877;DHT22;13692;47.480;19.216;2022-12-22T05:00:53;3.20;99.90
25877;DHT22;13692;47.480;19.216;2022-12-22T05:03:20;3.20;99.90
25877;DHT22;13692;47.480;19.216;2022-12-22T05:05:48;3.20;99.90
25877;DHT22;13692;47.480;19.216;2022-12-22T05:08:15;3.20;99.90
25877;DHT22;13692;47.480;19.216;2022-12-22T05:10:41;3.10;99.90
25877;DHT22;13692;47.480;19.216;2022-12-22T05:13:08;3.20;99.90
25877;DHT22;13692;47.480;19.216;2022-12-22T05:15:36;3.10;99.90
25877;DHT22;13692;47.480;19.216;2022-12-22T05:18:03;3.10;99.90
25877;DHT22;13692;47.480;19.216;2022-12-22T05:20:30;3.10;99.90
25877;DHT22;13692;47.480;19.216;2022-12-22T05:22:57;3.20;99.90
25877;DHT22;13692;47.480;19.216;2022-12-22T05:25:25;3.20;99.90
25877;DHT22;13692;47.480;19.216;2022-12-22T05:27:58;3.20;99.90
25877;DHT22;13692;47.480;19.216;2022-12-22T05:30:25;3.10;99.90
25877;DHT22;13692;47.480;19.216;2022-12-22T05:32:52;3.20;99.90
25877;DHT22;13692;47.480;19.216;2022-12-22T05:35:19;3.20;99.90
25877;DHT22;13692;47.480;19.216;2022-12-22T05:37:46;3.20;99.90
25877;DHT22;13692;47.480;19.216;2022-12-22T05:40:14;3.20;99.90
25877;DHT22;13692;47.480;19.216;2022-12-22T05:42:40;3.20;99.90
25877;DHT22;13692;47.480;19.216;2022-12-22T05:45:18;3.20;99.90
25877;DHT22;13692;47.480;19.216;2022-12-22T05:47:50;3.20;99.90
25877;DHT22;13692;47.480;19.216;2022-12-22T05:50:20;3.10;99.90
25877;DHT22;13692;47.480;19.216;2022-12-22T05:52:47;3.10;99.90
25877;DHT22;13692;47.480;19.216;2022-12-22T05:55:15;3.10;99.90
25877;DHT22;13692;47.480;19.216;2022-12-22T05:57:42;3.20;99.90
25877;DHT22;13692;47.480;19.216;2022-12-22T06:00:13;3.20;99.90
25877;DHT22;13692;47.480;19.216;2022-12-22T06:02:42;3.20;99.90
25877;DHT22;13692;47.480;19.216;2022-12-22T06:05:10;3.10;99.90
25877;DHT22;13692;47.480;19.216;2022-12-22T06:07:38;3.10;99.90
25877;DHT22;13692;47.480;19.216;2022-12-22T06:10:06;3.20;99.90
25877;DHT22;13692;47.480;19.216;2022-12-22T06:12:39;3.20;99.90
25877;DHT22;13692;47.480;19.216;2022-12-22T06:15:08;3.10;99.90
25877;DHT22;13692;47.480;19.216;2022-12-22T06:17:36;3.10;99.90
25877;DHT22;13692;47.480;19.216;2022-12-22T06:20:11;3.10;99.90
25877;DHT22;13692;47.480;19.216;2022-12-22T06:22:38;3.00;99.90
25877;DHT22;13692;47.480;19.216;2022-12-22T06:25:05;3.00;99.90
25877;DHT22;13692;47.480;19.216;2022-12-22T06:27:34;3.00;99.90
25877;DHT22;13692;47.480;19.216;2022-12-22T06:30:01;3.00;99.90
25877;DHT22;13692;47.480;19.216;2022-12-22T06:32:28;3.00;99.90
25877;DHT22;13692;47.480;19.216;2022-12-22T06:34:55;3.10;99.90
25877;DHT22;13692;47.480;19.216;2022-12-22T06:37:22;3.10;99.90
25877;DHT22;13692;47.480;19.216;2022-12-22T06:39:49;3.10;99.90
25877;DHT22;13692;47.480;19.216;2022-12-22T06:42:16;3.10;99.90
25877;DHT22;13692;47.480;19.216;2022-12-22T06:45:01;3.10;99.90
25877;DHT22;13692;47.480;19.216;2022-12-22T06:47:28;3.10;99.90
25877;DHT22;13692;47.480;19.216;2022-12-22T06:49:55;3.10;99.90
25877;DHT22;13692;47.480;19.216;2022-12-22T06:52:22;3.10;99.90
25877;DHT22;13692;47.480;19.216;2022-12-22T06:54:49;3.00;99.90
25877;DHT22;13692;47.480;19.216;2022-12-22T06:57:16;2.90;99.90
25877;DHT22;13692;47.480;19.216;2022-12-22T06:59:43;2.90;99.90
25877;DHT22;13692;47.480;19.216;2022-12-22T07:02:10;2.80;99.90
25877;DHT22;13692;47.480;19.216;2022-12-22T07:04:37;2.80;99.90
25877;DHT22;13692;47.480;19.216;2022-12-22T07:07:04;2.80;99.90
25877;DHT22;13692;47.480;19.216;2022-12-22T07:09:31;2.90;99.90
25877;DHT22;13692;47.480;19.216;2022-12-22T07:11:58;2.90;99.90
25877;DHT22;13692;47.480;19.216;2022-12-22T07:14:25;3.00;99.90
25877;DHT22;13692;47.480;19.216;2022-12-22T07:16:52;3.10;99.90
25877;DHT22;13692;47.480;19.216;2022-12-22T07:19:19;3.20;99.90
25877;DHT22;13692;47.480;19.216;2022-12-22T07:21:46;3.30;99.90
25877;DHT22;13692;47.480;19.216;2022-12-22T07:24:14;3.40;99.90
25877;DHT22;13692;47.480;19.216;2022-12-22T07:26:42;3.40;99.90
25877;DHT22;13692;47.480;19.216;2022-12-22T07:29:09;3.40;99.90
25877;DHT22;13692;47.480;19.216;2022-12-22T07:31:36;3.50;99.90
25877;DHT22;13692;47.480;19.216;2022-12-22T07:34:03;3.60;99.90
25877;DHT22;13692;47.480;19.216;2022-12-22T07:36:30;3.70;99.90
25877;DHT22;13692;47.480;19.216;2022-12-22T07:38:57;3.80;99.90
25877;DHT22;13692;47.480;19.216;2022-12-22T07:41:24;3.80;99.90
25877;DHT22;13692;47.480;19.216;2022-12-22T07:44:10;3.90;99.90
25877;DHT22;13692;47.480;19.216;2022-12-22T07:46:37;3.80;99.90
25877;DHT22;13692;47.480;19.216;2022-12-22T07:49:06;3.90;99.90
25877;DHT22;13692;47.480;19.216;2022-12-22T07:51:54;3.90;99.90
25877;DHT22;13692;47.480;19.216;2022-12-22T07:54:21;3.90;99.90
25877;DHT22;13692;47.480;19.216;2022-12-22T07:56:49;3.90;99.90
25877;DHT22;13692;47.480;19.216;2022-12-22T07:59:16;3.90;99.90
25877;DHT22;13692;47.480;19.216;2022-12-22T08:01:43;3.90;99.90
25877;DHT22;13692;47.480;19.216;2022-12-22T08:04:12;3.90;99.90
25877;DHT22;13692;47.480;19.216;2022-12-22T08:06:39;4.00;99.90
25877;DHT22;13692;47.480;19.216;2022-12-22T08:09:07;4.00;99.90
25877;DHT22;13692;47.480;19.216;2022-12-22T08:11:34;3.90;99.90
25877;DHT22;13692;47.480;19.216;2022-12-22T08:14:01;3.90;99.90
25877;DHT22;13692;47.480;19.216;2022-12-22T08:16:28;3.90;99.90
25877;DHT22;13692;47.480;19.216;2022-12-22T08:18:56;3.90;99.90
25877;DHT22;13692;47.480;19.216;2022-12-22T08:21:23;3.90;99.90
25877;DHT22;13692;47.480;19.216;2022-12-22T08:23:50;4.00;99.90
25877;DHT22;13692;47.480;19.216;2022-12-22T08:26:37;4.00;99.90
25877;DHT22;13692;47.480;19.216;2022-12-22T08:29:15;4.00;99.90
25877;DHT22;13692;47.480;19.216;2022-12-22T08:31:43;3.90;99.90
25877;DHT22;13692;47.480;19.216;2022-12-22T08:34:13;3.90;99.90
25877;DHT22;13692;47.480;19.216;2022-12-22T08:36:48;4.00;99.90
25877;DHT22;13692;47.480;19.216;2022-12-22T08:39:17;4.00;99.90
25877;DHT22;13692;47.480;19.216;2022-12-22T08:41:45;4.00;99.90
25877;DHT22;13692;47.480;19.216;2022-12-22T08:44:24;4.00;99.90
25877;DHT22;13692;47.480;19.216;2022-12-22T08:46:53;4.00;99.90
25877;DHT22;13692;47.480;19.216;2022-12-22T08:49:22;4.00;99.90
25877;DHT22;13692;47.480;19.216;2022-12-22T08:51:49;4.00;99.90
25877;DHT22;13692;47.480;19.216;2022-12-22T08:54:16;3.90;99.90
25877;DHT22;13692;47.480;19.216;2022-12-22T08:56:44;4.00;99.90
25877;DHT22;13692;47.480;19.216;2022-12-22T08:59:12;3.90;99.90
25877;DHT22;13692;47.480;19.216;2022-12-22T09:01:40;4.00;99.90
25877;DHT22;13692;47.480;19.216;2022-12-22T09:04:15;4.10;99.90
25877;DHT22;13692;47.480;19.216;2022-12-22T09:06:42;4.10;99.90
25877;DHT22;13692;47.480;19.216;2022-12-22T09:09:11;4.20;99.90
25877;DHT22;13692;47.480;19.216;2022-12-22T09:11:38;4.20;99.90
25877;DHT22;13692;47.480;19.216;2022-12-22T09:14:07;4.20;99.90
25877;DHT22;13692;47.480;19.216;2022-12-22T09:16:35;4.20;99.90
25877;DHT22;13692;47.480;19.216;2022-12-22T09:19:02;4.20;99.90
25877;DHT22;13692;47.480;19.216;2022-12-22T09:21:30;4.20;99.90
25877;DHT22;13692;47.480;19.216;2022-12-22T09:23:57;4.10;99.90
25877;DHT22;13692;47.480;19.216;2022-12-22T09:26:26;4.20;99.90
25877;DHT22;13692;47.480;19.216;2022-12-22T09:28:53;4.10;99.90
25877;DHT22;13692;47.480;19.216;2022-12-22T09:31:22;4.20;99.90
25877;DHT22;13692;47.480;19.216;2022-12-22T09:33:50;4.20;99.90
25877;DHT22;13692;47.480;19.216;2022-12-22T09:36:20;4.20;99.90
25877;DHT22;13692;47.480;19.216;2022-12-22T09:38:47;4.20;99.90
25877;DHT22;13692;47.480;19.216;2022-12-22T09:41:15;4.10;99.90
25877;DHT22;13692;47.480;19.216;2022-12-22T09:43:44;4.30;99.90
25877;DHT22;13692;47.480;19.216;2022-12-22T09:46:22;4.40;99.90
25877;DHT22;13692;47.480;19.216;2022-12-22T09:48:52;4.40;99.90
25877;DHT22;13692;47.480;19.216;2022-12-22T09:51:20;4.50;99.90
25877;DHT22;13692;47.480;19.216;2022-12-22T09:53:58;4.60;99.90
25877;DHT22;13692;47.480;19.216;2022-12-22T09:56:27;4.60;99.90
25877;DHT22;13692;47.480;19.216;2022-12-22T09:58:55;4.60;99.90
25877;DHT22;13692;47.480;19.216;2022-12-22T10:09:35;4.70;99.90
25877;DHT22;13692;47.480;19.216;2022-12-22T10:12:21;4.80;99.90
25877;DHT22;13692;47.480;19.216;2022-12-22T10:14:50;4.80;99.90
25877;DHT22;13692;47.480;19.216;2022-12-22T10:22:35;4.80;99.90
25877;DHT22;13692;47.480;19.216;2022-12-22T10:25:05;4.80;99.90
25877;DHT22;13692;47.480;19.216;2022-12-22T10:27:34;4.80;99.90
25877;DHT22;13692;47.480;19.216;2022-12-22T10:33:10;4.70;99.90
25877;DHT22;13692;47.480;19.216;2022-12-22T10:35:49;4.80;99.90
25877;DHT22;13692;47.480;19.216;2022-12-22T10:40:50;4.80;99.90
25877;DHT22;13692;47.480;19.216;2022-12-22T10:43:33;4.80;99.90
25877;DHT22;13692;47.480;19.216;2022-12-22T10:46:01;4.80;99.90
25877;DHT22;13692;47.480;19.216;2022-12-22T10:48:32;4.70;99.90
25877;DHT22;13692;47.480;19.216;2022-12-22T10:51:01;4.80;99.90
25877;DHT22;13692;47.480;19.216;2022-12-22T10:56:29;4.80;99.90
25877;DHT22;13692;47.480;19.216;2022-12-22T11:01:35;4.60;99.90
25877;DHT22;13692;47.480;19.216;2022-12-22T11:06:44;4.80;99.90
25877;DHT22;13692;47.480;19.216;2022-12-22T11:09:11;4.90;99.90
25877;DHT22;13692;47.480;19.216;2022-12-22T11:12:09;4.90;99.90
25877;DHT22;13692;47.480;19.216;2022-12-22T11:26:44;5.30;99.90
25877;DHT22;13692;47.480;19.216;2022-12-22T11:37:28;5.70;99.90
25877;DHT22;13692;47.480;19.216;2022-12-22T11:40:16;5.80;99.90
25877;DHT22;13692;47.480;19.216;2022-12-22T11:43:40;5.80;99.90
25877;DHT22;13692;47.480;19.216;2022-12-22T12:05:31;5.90;99.90
25877;DHT22;13692;47.480;19.216;2022-12-22T12:08:08;5.80;99.90
25877;DHT22;13692;47.480;19.216;2022-12-22T12:10:50;5.90;99.90
25877;DHT22;13692;47.480;19.216;2022-12-22T12:22:00;5.80;99.90
25877;DHT22;13692;47.480;19.216;2022-12-22T12:25:00;5.70;99.90
25877;DHT22;13692;47.480;19.216;2022-12-22T12:28:20;5.70;99.90
25877;DHT22;13692;47.480;19.216;2022-12-22T12:30:58;5.70;99.90
25877;DHT22;13692;47.480;19.216;2022-12-22T12:33:41;5.70;99.90
25877;DHT22;13692;47.480;19.216;2022-12-22T12:38:53;5.60;99.90
25877;DHT22;13692;47.480;19.216;2022-12-22T12:44:35;5.60;99.90
25877;DHT22;13692;47.480;19.216;2022-12-22T12:55:25;5.70;99.90
25877;DHT22;13692;47.480;19.216;2022-12-22T12:58:00;5.80;99.90
25877;DHT22;13692;47.480;19.216;2022-12-22T13:06:47;5.80;99.90
25877;DHT22;13692;47.480;19.216;2022-12-22T13:09:20;5.90;99.90
25877;DHT22;13692;47.480;19.216;2022-12-22T13:12:38;5.90;99.90
25877;DHT22;13692;47.480;19.216;2022-12-22T13:15:26;5.80;99.90
25877;DHT22;13692;47.480;19.216;2022-12-22T13:17:54;5.60;99.90
25877;DHT22;13692;47.480;19.216;2022-12-22T13:20:28;5.60;99.90
25877;DHT22;13692;47.480;19.216;2022-12-22T13:22:58;5.50;99.90
25877;DHT22;13692;47.480;19.216;2022-12-22T13:25:52;5.40;99.90
25877;DHT22;13692;47.480;19.216;2022-12-22T13:28:22;5.30;99.90
25877;DHT22;13692;47.480;19.216;2022-12-22T13:30:55;5.40;99.90
25877;DHT22;13692;47.480;19.216;2022-12-22T13:33:26;5.40;99.90
25877;DHT22;13692;47.480;19.216;2022-12-22T13:35:56;5.40;99.90
25877;DHT22;13692;47.480;19.216;2022-12-22T13:38:36;5.40;99.90
25877;DHT22;13692;47.480;19.216;2022-12-22T13:41:14;5.40;99.90
25877;DHT22;13692;47.480;19.216;2022-12-22T13:43:53;5.30;99.90
25877;DHT22;13692;47.480;19.216;2022-12-22T13:46:22;5.40;99.90
25877;DHT22;13692;47.480;19.216;2022-12-22T13:48:51;5.50;99.90
25877;DHT22;13692;47.480;19.216;2022-12-22T13:51:26;5.60;99.90
25877;DHT22;13692;47.480;19.216;2022-12-22T13:53:56;5.60;99.90
25877;DHT22;13692;47.480;19.216;2022-12-22T14:02:12;5.10;99.90
25877;DHT22;13692;47.480;19.216;2022-12-22T14:04:43;5.10;99.90
25877;DHT22;13692;47.480;19.216;2022-12-22T14:07:19;5.10;99.90
25877;DHT22;13692;47.480;19.216;2022-12-22T14:09:48;5.00;99.90
25877;DHT22;13692;47.480;19.216;2022-12-22T14:12:18;4.90;99.90
25877;DHT22;13692;47.480;19.216;2022-12-22T14:14:49;4.80;99.90
25877;DHT22;13692;47.480;19.216;2022-12-22T14:17:23;4.80;99.90
25877;DHT22;13692;47.480;19.216;2022-12-22T14:19:54;4.80;99.90
25877;DHT22;13692;47.480;19.216;2022-12-22T14:22:26;4.80;99.90
25877;DHT22;13692;47.480;19.216;2022-12-22T14:24:57;4.70;99.90
25877;DHT22;13692;47.480;19.216;2022-12-22T14:27:29;4.70;99.90
25877;DHT22;13692;47.480;19.216;2022-12-22T14:30:00;4.80;99.90
25877;DHT22;13692;47.480;19.216;2022-12-22T14:32:40;4.80;99.90
25877;DHT22;13692;47.480;19.216;2022-12-22T14:35:28;4.80;99.90
25877;DHT22;13692;47.480;19.216;2022-12-22T14:40:37;4.80;99.90
25877;DHT22;13692;47.480;19.216;2022-12-22T14:43:12;4.90;99.90
25877;DHT22;13692;47.480;19.216;2022-12-22T14:45:40;4.80;99.90
25877;DHT22;13692;47.480;19.216;2022-12-22T14:48:08;4.80;99.90
25877;DHT22;13692;47.480;19.216;2022-12-22T14:50:35;4.70;99.90
25877;DHT22;13692;47.480;19.216;2022-12-22T14:53:03;4.80;99.90
25877;DHT22;13692;47.480;19.216;2022-12-22T14:58:42;4.90;99.90
25877;DHT22;13692;47.480;19.216;2022-12-22T15:09:08;4.90;99.90
25877;DHT22;13692;47.480;19.216;2022-12-22T15:12:13;4.90;99.90
25877;DHT22;13692;47.480;19.216;2022-12-22T15:14:42;4.90;99.90
25877;DHT22;13692;47.480;19.216;2022-12-22T15:17:22;4.90;99.90
25877;DHT22;13692;47.480;19.216;2022-12-22T15:19:50;4.90;99.90
25877;DHT22;13692;47.480;19.216;2022-12-22T15:22:17;4.80;99.90
25877;DHT22;13692;47.480;19.216;2022-12-22T15:24:44;4.80;99.90
25877;DHT22;13692;47.480;19.216;2022-12-22T15:27:12;4.80;99.90
25877;DHT22;13692;47.480;19.216;2022-12-22T15:29:39;4.80;99.90
25877;DHT22;13692;47.480;19.216;2022-12-22T15:32:13;4.60;99.90
25877;DHT22;13692;47.480;19.216;2022-12-22T15:34:40;4.60;99.90
25877;DHT22;13692;47.480;19.216;2022-12-22T15:37:11;4.50;99.90
25877;DHT22;13692;47.480;19.216;2022-12-22T15:39:38;4.40;99.90
25877;DHT22;13692;47.480;19.216;2022-12-22T15:42:06;4.40;99.90
25877;DHT22;13692;47.480;19.216;2022-12-22T15:44:33;4.40;99.90
25877;DHT22;13692;47.480;19.216;2022-12-22T15:47:04;4.30;99.90
25877;DHT22;13692;47.480;19.216;2022-12-22T15:49:32;4.30;99.90
25877;DHT22;13692;47.480;19.216;2022-12-22T15:52:01;4.40;99.90
25877;DHT22;13692;47.480;19.216;2022-12-22T15:54:30;4.30;99.90
25877;DHT22;13692;47.480;19.216;2022-12-22T15:57:00;4.30;99.90
25877;DHT22;13692;47.480;19.216;2022-12-22T15:59:28;4.30;99.90
25877;DHT22;13692;47.480;19.216;2022-12-22T16:01:56;4.40;99.90
25877;DHT22;13692;47.480;19.216;2022-12-22T16:04:27;4.30;99.90
25877;DHT22;13692;47.480;19.216;2022-12-22T16:06:55;4.20;99.90
25877;DHT22;13692;47.480;19.216;2022-12-22T16:09:25;4.20;99.90
25877;DHT22;13692;47.480;19.216;2022-12-22T16:11:53;4.10;99.90
25877;DHT22;13692;47.480;19.216;2022-12-22T16:14:21;4.10;99.90
25877;DHT22;13692;47.480;19.216;2022-12-22T16:16:49;4.10;99.90
25877;DHT22;13692;47.480;19.216;2022-12-22T16:19:17;4.10;99.90
25877;DHT22;13692;47.480;19.216;2022-12-22T16:21:46;4.00;99.90
25877;DHT22;13692;47.480;19.216;2022-12-22T16:24:34;4.00;99.90
25877;DHT22;13692;47.480;19.216;2022-12-22T16:27:02;4.10;99.90
25877;DHT22;13692;47.480;19.216;2022-12-22T16:29:29;4.10;99.90
25877;DHT22;13692;47.480;19.216;2022-12-22T16:32:28;4.10;99.90
25877;DHT22;13692;47.480;19.216;2022-12-22T16:35:00;4.20;99.90
25877;DHT22;13692;47.480;19.216;2022-12-22T16:37:32;4.20;99.90
25877;DHT22;13692;47.480;19.216;2022-12-22T16:39:59;4.20;99.90
25877;DHT22;13692;47.480;19.216;2022-12-22T16:42:26;4.30;99.90
25877;DHT22;13692;47.480;19.216;2022-12-22T16:45:18;4.30;99.90
25877;DHT22;13692;47.480;19.216;2022-12-22T16:47:49;4.40;99.90
25877;DHT22;13692;47.480;19.216;2022-12-22T16:50:20;4.40;99.90
25877;DHT22;13692;47.480;19.216;2022-12-22T16:52:48;4.40;99.90
25877;DHT22;13692;47.480;19.216;2022-12-22T16:55:18;4.40;99.90
25877;DHT22;13692;47.480;19.216;2022-12-22T16:57:46;4.40;99.90
25877;DHT22;13692;47.480;19.216;2022-12-22T17:00:15;4.50;99.90
25877;DHT22;13692;47.480;19.216;2022-12-22T17:02:49;4.50;99.90
25877;DHT22;13692;47.480;19.216;2022-12-22T17:05:27;4.50;99.90
25877;DHT22;13692;47.480;19.216;2022-12-22T17:07:56;4.50;99.90
25877;DHT22;13692;47.480;19.216;2022-12-22T17:10:24;4.50;99.90
25877;DHT22;13692;47.480;19.216;2022-12-22T17:12:53;4.50;99.90
25877;DHT22;13692;47.480;19.216;2022-12-22T17:15:21;4.50;99.90
25877;DHT22;13692;47.480;19.216;2022-12-22T17:17:49;4.40;99.90
25877;DHT22;13692;47.480;19.216;2022-12-22T17:20:18;4.40;99.90
25877;DHT22;13692;47.480;19.216;2022-12-22T17:22:52;4.40;99.90
25877;DHT22;13692;47.480;19.216;2022-12-22T17:25:24;4.40;99.90
25877;DHT22;13692;47.480;19.216;2022-12-22T17:27:51;4.40;99.90
25877;DHT22;13692;47.480;19.216;2022-12-22T17:30:24;4.40;99.90
25877;DHT22;13692;47.480;19.216;2022-12-22T17:32:52;4.50;99.90
25877;DHT22;13692;47.480;19.216;2022-12-22T17:35:22;4.40;99.90
25877;DHT22;13692;47.480;19.216;2022-12-22T17:37:49;4.40;99.90
25877;DHT22;13692;47.480;19.216;2022-12-22T17:40:23;4.40;99.90
25877;DHT22;13692;47.480;19.216;2022-12-22T17:42:52;4.30;99.90
25877;DHT22;13692;47.480;19.216;2022-12-22T17:45:20;4.40;99.90
25877;DHT22;13692;47.480;19.216;2022-12-22T17:47:47;4.40;99.90
25877;DHT22;13692;47.480;19.216;2022-12-22T17:50:16;4.40;99.90
25877;DHT22;13692;47.480;19.216;2022-12-22T17:52:44;4.40;99.90
25877;DHT22;13692;47.480;19.216;2022-12-22T17:55:25;4.40;99.90
25877;DHT22;13692;47.480;19.216;2022-12-22T17:58:15;4.30;99.90
25877;DHT22;13692;47.480;19.216;2022-12-22T18:00:42;4.30;99.90
25877;DHT22;13692;47.480;19.216;2022-12-22T18:03:13;4.40;99.90
25877;DHT22;13692;47.480;19.216;2022-12-22T18:05:44;4.50;99.90
25877;DHT22;13692;47.480;19.216;2022-12-22T18:08:18;4.50;99.90
25877;DHT22;13692;47.480;19.216;2022-12-22T18:10:46;4.50;99.90
25877;DHT22;13692;47.480;19.216;2022-12-22T18:13:22;4.60;99.90
25877;DHT22;13692;47.480;19.216;2022-12-22T18:15:51;4.50;99.90
25877;DHT22;13692;47.480;19.216;2022-12-22T18:18:19;4.50;99.90
25877;DHT22;13692;47.480;19.216;2022-12-22T18:20:47;4.50;99.90
25877;DHT22;13692;47.480;19.216;2022-12-22T18:23:35;4.50;99.90
25877;DHT22;13692;47.480;19.216;2022-12-22T18:26:06;4.50;99.90
25877;DHT22;13692;47.480;19.216;2022-12-22T18:28:36;4.50;99.90
25877;DHT22;13692;47.480;19.216;2022-12-22T18:31:03;4.50;99.90
25877;DHT22;13692;47.480;19.216;2022-12-22T18:33:30;4.50;99.90
25877;DHT22;13692;47.480;19.216;2022-12-22T18:35:58;4.50;99.90